Latest Weather Observations for Edenhope

IDV60801

Issued at 4:35 pm EST Tuesday 2 September 2014 (issued every 30 minutes, with the page automatically refreshed every 10 minutes)

About weather observations | Map of weather stations | Latest weather observations for VIC | Other Formats
Station Details ID: 079099 Name: EDENHOPE AIRPORT Lat: -37.02 Lon: 141.27 Height: 155.0 m
Data from the previous 72 hours. | See also: Recent months at Edenhope
Date/Time
EST
Temp
°C
App
Temp
°C
Dew
Point
Rel
Hum
%
Delta-T
°C
Wind Press
QNH
hPa
Press
MSL
hPa
Rain
since 9 am
mm
Dir
 
Spd
km/h
Gust
km/h
Spd
kts
Gust
kts
02/04:30pm 12.6 8.6 5.1 60 3.5 S 15 26 8 14 - - 0.0
02/04:00pm 11.8 7.5 5.2 64 3.1 S 17 26 9 14 - - 0.0
02/03:30pm 11.0 6.8 5.7 70 2.5 WSW 17 30 9 16 - - 0.0
02/03:00pm 13.3 8.7 3.9 53 4.3 S 17 28 9 15 - - 0.0
02/02:30pm 12.3 7.0 5.2 62 3.3 S 22 39 12 21 - - 0.0
02/02:00pm 13.3 10.0 6.2 62 3.4 S 13 20 7 11 - - 0.0
02/01:30pm 12.3 8.1 7.4 72 2.4 S 19 30 10 16 - - 0.0
02/01:00pm 14.1 10.3 5.7 57 4.0 S 15 30 8 16 - - 0.0
02/12:30pm 13.5 9.2 5.4 58 3.8 S 17 30 9 16 - - 0.0
02/12:00pm 12.8 8.0 4.8 58 3.7 S 19 26 10 14 - - 0.0
02/11:30am 12.4 7.6 4.4 58 3.7 S 19 28 10 15 - - 0.0
02/11:00am 12.8 8.1 5.0 59 3.6 S 19 30 10 16 - - 0.0
02/10:30am 11.9 6.5 4.6 61 3.3 S 22 33 12 18 - - 0.0
02/10:00am 11.2 6.6 5.5 68 2.6 S 19 24 10 13 - - 0.0
02/09:30am 9.8 6.9 6.5 80 1.6 SSW 11 19 6 10 - - 0.0
02/09:00am 8.4 5.5 6.4 87 0.9 SW 11 17 6 9 - - 6.6
02/08:30am 7.3 5.1 6.2 93 0.5 SW 7 13 4 7 - - 6.6
02/08:00am 6.0 3.6 5.3 95 0.3 SW 7 11 4 6 - - 6.6
02/07:30am 5.1 3.1 4.5 96 0.3 SSW 4 7 2 4 - - 6.6
02/07:00am 4.5 1.9 4.1 97 0.2 SSW 7 11 4 6 - - 6.6
02/06:30am 3.6 1.0 3.0 96 0.2 SSW 6 9 3 5 - - 6.6
02/06:00am 3.9 1.1 3.3 96 0.2 SSW 7 11 4 6 - - 6.6
02/05:30am 3.5 0.9 3.1 97 0.2 SW 6 7 3 4 - - 6.6
02/05:00am 3.6 1.0 3.2 97 0.2 SW 6 7 3 4 - - 6.6
02/04:30am 4.0 2.2 3.7 98 0.1 SW 2 4 1 2 - - 6.6
02/04:00am 3.5 1.2 2.9 96 0.2 W 4 6 2 3 - - 6.6
02/03:30am 4.3 2.1 3.6 95 0.3 WSW 4 7 2 4 - - 6.6
02/03:00am 4.2 1.7 3.6 96 0.3 WSW 6 9 3 5 - - 6.6
02/02:30am 4.1 1.4 3.5 96 0.2 WSW 7 11 4 6 - - 6.6
02/02:00am 3.7 1.1 3.1 96 0.2 W 6 6 3 3 - - 6.6
02/01:30am 4.2 1.7 3.5 95 0.3 WSW 6 7 3 4 - - 6.6
02/01:00am 4.1 1.5 3.4 95 0.3 WSW 6 7 3 4 - - 6.6
02/12:30am 4.6 2.1 4.0 96 0.3 WSW 6 6 3 3 - - 6.6
02/12:00am 4.3 2.2 3.9 97 0.2 W 4 4 2 2 - - 6.6
 
Date/Time
EST
Temp
°C
App
Temp
°C
Dew
Point
Rel
Hum
%
Delta-T
°C
Wind Press
QNH
hPa
Press
MSL
hPa
Rain
since 9 am
mm
Dir
 
Spd
km/h
Gust
km/h
Spd
kts
Gust
kts
01/11:30pm 3.7 1.1 3.1 96 0.2 W 6 7 3 4 - - 6.6
01/11:00pm 4.8 2.8 4.2 96 0.3 WSW 4 4 2 2 - - 6.6
01/10:30pm 4.8 2.8 4.2 96 0.3 W 4 4 2 2 - - 6.6
01/10:00pm 4.6 2.5 3.7 94 0.4 W 4 6 2 3 - - 6.6
01/09:30pm 5.4 3.8 4.4 93 0.4 W 2 2 1 1 - - 6.6
01/09:00pm 7.1 5.6 4.9 86 1.0 SW 2 4 1 2 - - 6.6
01/08:30pm 7.6 5.8 5.6 87 0.9 SW 4 6 2 3 - - 6.6
01/08:00pm 8.3 6.2 5.8 84 1.1 SW 6 7 3 4 - - 6.6
01/07:30pm 8.8 6.2 6.3 84 1.2 SW 9 13 5 7 - - 6.6
01/07:00pm 9.3 7.1 6.2 81 1.4 SW 7 13 4 7 - - 6.6
01/06:30pm 10.1 6.4 6.1 76 1.9 SSW 15 24 8 13 - - 6.6
01/06:00pm 11.1 7.8 6.5 73 2.2 SW 13 20 7 11 - - 6.6
01/05:30pm 11.6 7.4 7.3 75 2.1 SW 19 26 10 14 - - 6.6
01/05:00pm 11.8 8.8 7.9 77 1.9 WSW 13 20 7 11 - - 6.6
01/04:30pm 11.7 8.3 7.8 77 1.9 W 15 20 8 11 - - 6.6
01/04:00pm 13.2 9.7 7.0 66 3.0 SW 15 22 8 12 - - 6.6
01/03:30pm 13.6 10.1 7.2 65 3.1 SSW 15 22 8 12 - - 6.6
01/03:00pm 13.3 9.8 7.3 67 2.9 SW 15 20 8 11 - - 6.6
01/02:30pm 13.2 10.7 8.3 72 2.5 SSW 11 20 6 11 - - 6.6
01/02:00pm 12.6 8.5 8.7 77 2.0 SW 20 24 11 13 - - 6.6
01/01:30pm 11.4 9.2 9.3 87 1.1 S 11 19 6 10 - - 6.6
01/01:00pm 9.8 6.4 9.0 95 0.4 SSW 17 28 9 15 - - 6.6
01/12:44pm 8.0 2.0 6.9 93 0.5 SSW 28 41 15 22 - - 6.0
01/12:40pm 8.2 -1.8 6.3 88 0.9 WSW 48 70 26 38 - - 4.2
01/12:39pm 8.5 -2.2 6.3 86 1.0 WSW 52 70 28 38 - - 3.2
01/12:30pm 12.0 10.4 10.1 88 1.0 W 9 15 5 8 - - 1.4
01/12:00pm 12.8 12.0 9.8 82 1.5 SW 4 9 2 5 - - 0.0
01/11:30am 12.4 10.4 10.0 85 1.2 W 11 17 6 9 - - 0.0
01/11:00am 13.4 10.9 9.6 78 2.0 WNW 13 19 7 10 - - 0.0
01/10:30am 12.8 11.0 10.7 87 1.1 W 11 15 6 8 - - 0.0
01/10:00am 11.7 9.3 10.1 90 0.8 W 13 19 7 10 - - 0.0
01/09:30am 11.8 9.4 10.2 90 0.8 W 13 19 7 10 - - 0.0
01/09:00am 11.6 9.7 10.5 93 0.6 W 11 19 6 10 - - 2.6
01/08:30am 11.4 9.1 10.6 95 0.4 WNW 13 19 7 10 - - 2.6
01/08:00am 11.1 8.8 10.6 97 0.3 WNW 13 22 7 12 - - 2.6
01/07:30am 10.9 8.2 10.4 97 0.3 WNW 15 22 8 12 - - 2.6
01/07:00am 10.9 8.9 10.3 96 0.3 NW 11 19 6 10 - - 2.6
01/06:30am 10.8 8.8 10.2 96 0.3 NW 11 17 6 9 - - 2.6
01/06:00am 10.7 8.7 10.1 96 0.3 NW 11 17 6 9 - - 2.6
01/05:30am 10.7 9.1 10.1 96 0.3 NNW 9 13 5 7 - - 2.6
01/05:00am 10.8 9.5 10.0 95 0.4 NNW 7 11 4 6 - - 2.0
01/04:30am 11.2 9.2 10.3 94 0.5 NW 11 24 6 13 - - 1.6
01/04:00am 11.5 10.1 10.9 96 0.3 NW 9 15 5 8 - - 0.6
01/03:30am 11.6 10.2 10.8 95 0.4 W 9 15 5 8 - - 0.2
01/03:00am 11.8 10.6 10.2 90 0.8 WNW 7 11 4 6 - - 0.2
01/02:30am 12.2 10.8 9.4 83 1.4 WNW 7 11 4 6 - - 0.0
01/02:00am 12.4 10.5 8.9 79 1.8 W 9 13 5 7 - - 0.0
01/01:30am 13.6 10.6 7.6 67 3.0 WNW 13 22 7 12 - - 0.0
01/01:00am 13.8 11.4 5.4 57 4.0 WNW 7 13 4 7 - - 0.0
01/12:30am 12.8 10.4 4.3 56 3.9 WNW 6 7 3 4 - - 0.0
01/12:00am 14.5 11.2 2.4 44 5.4 NNW 9 11 5 6 - - 0.0
 
Date/Time
EST
Temp
°C
App
Temp
°C
Dew
Point
Rel
Hum
%
Delta-T
°C
Wind Press
QNH
hPa
Press
MSL
hPa
Rain
since 9 am
mm
Dir
 
Spd
km/h
Gust
km/h
Spd
kts
Gust
kts
31/11:30pm 13.9 11.0 2.5 46 5.1 N 7 9 4 5 - - 0.0
31/11:00pm 13.7 11.0 2.9 48 4.8 NNW 6 11 3 6 - - 0.0
31/10:30pm 13.7 11.2 3.5 50 4.6 WNW 6 9 3 5 - - 0.0
31/10:00pm 15.2 11.8 1.7 40 6.0 N 9 13 5 7 - - 0.0
31/09:30pm 15.2 11.8 1.7 40 6.0 N 9 13 5 7 - - 0.0
31/09:00pm 15.5 11.8 2.3 41 5.9 N 11 15 6 8 - - 0.0
31/08:30pm 15.6 11.9 2.4 41 5.9 N 11 13 6 7 - - 0.0
31/08:00pm 16.6 12.4 1.9 37 6.6 N 13 17 7 9 - - 0.0
31/07:30pm 15.7 12.9 3.2 43 5.7 N 7 9 4 5 - - 0.0
31/07:00pm 16.3 13.0 2.7 40 6.2 NNW 9 13 5 7 - - 0.0
31/06:30pm 18.0 13.5 1.9 34 7.3 N 15 20 8 11 - - 0.0
31/06:00pm 18.1 14.4 2.4 35 7.2 NNE 11 17 6 9 - - 0.0
31/05:30pm 18.1 14.5 2.8 36 7.1 N 11 15 6 8 - - 0.0
31/05:00pm 19.3 15.2 2.2 32 7.9 N 13 20 7 11 - - 0.0
31/04:30pm 19.6 15.8 3.7 35 7.6 NNW 13 20 7 11 - - 0.0
31/04:00pm 20.2 15.4 2.5 31 8.3 N 17 26 9 14 - - 0.0
31/03:30pm 20.8 15.4 2.6 30 8.6 NNW 20 30 11 16 - - 0.0
31/03:00pm 21.2 16.1 3.9 32 8.4 NNW 20 30 11 16 - - 0.0
31/02:30pm 21.1 16.1 3.8 32 8.4 NNW 19 28 10 15 - - 0.0
31/02:00pm 21.0 15.8 3.7 32 8.3 NNW 20 35 11 19 - - 0.0
31/01:30pm 22.0 16.4 3.6 30 8.9 NNW 22 33 12 18 - - 0.0
31/01:00pm 21.9 17.2 5.3 34 8.3 NNW 19 26 10 14 - - 0.0
31/12:30pm 20.9 16.0 5.3 36 7.8 NNW 20 30 11 16 - - 0.0
31/12:00pm 20.3 16.1 5.5 38 7.4 N 17 28 9 15 - - 0.0
31/11:30am 19.2 15.1 6.3 43 6.5 N 17 22 9 12 - - 0.0
31/11:00am 18.6 14.1 6.1 44 6.2 N 19 26 10 14 - - 0.0
31/10:30am 17.6 13.7 7.1 50 5.3 N 17 24 9 13 - - 0.0
31/10:00am 15.5 12.2 6.2 54 4.5 N 13 19 7 10 - - 0.0
31/09:30am 14.2 10.3 5.3 55 4.2 N 15 22 8 12 - - 0.0
31/09:00am 12.8 8.4 4.8 58 3.7 NNE 17 22 9 12 - - 0.0
31/08:30am 12.3 7.8 4.0 57 3.8 NNE 17 26 9 14 - - 0.0
31/08:00am 11.5 8.2 4.3 61 3.3 NNE 11 20 6 11 - - 0.0
31/07:30am 9.6 6.9 3.8 67 2.6 NNE 7 11 4 6 - - 0.0
31/07:00am 9.7 5.9 3.9 67 2.6 NE 13 19 7 10 - - 0.0
31/06:30am 9.5 4.9 3.9 68 2.5 NE 17 20 9 11 - - 0.0
31/06:00am 9.4 5.2 4.0 69 2.4 NE 15 19 8 10 - - 0.0
31/05:30am 9.4 6.0 4.0 69 2.4 NE 11 15 6 8 - - 0.0
31/05:00am 9.3 6.0 4.3 71 2.2 NE 11 15 6 8 - - 0.0
31/04:30am 9.3 6.0 4.3 71 2.2 NE 11 15 6 8 - - 0.0
31/04:00am 10.1 6.8 4.7 69 2.4 NE 11 17 6 9 - - 0.0
31/03:30am 10.3 7.0 4.7 68 2.5 NE 11 15 6 8 - - 0.0
31/03:00am 10.4 7.1 4.8 68 2.5 NE 11 15 6 8 - - 0.0
31/02:30am 10.7 7.4 4.8 67 2.7 NE 11 17 6 9 - - 0.0
31/02:00am 11.2 8.0 5.1 66 2.8 NE 11 15 6 8 - - 0.0
31/01:30am 11.7 8.5 5.3 65 3.0 NE 11 15 6 8 - - 0.0
31/01:00am 12.1 9.0 5.5 64 3.1 NE 11 17 6 9 - - 0.0
31/12:30am 12.4 9.0 5.8 64 3.1 ENE 13 20 7 11 - - 0.0
31/12:00am 12.9 9.9 6.0 63 3.3 NE 11 17 6 9 - - 0.0
 
Date/Time
EST
Temp
°C
App
Temp
°C
Dew
Point
Rel
Hum
%
Delta-T
°C
Wind Press
QNH
hPa
Press
MSL
hPa
Rain
since 9 am
mm
Dir
 
Spd
km/h
Gust
km/h
Spd
kts
Gust
kts
30/11:30pm 13.3 10.0 6.4 63 3.3 NE 13 20 7 11 - - 0.0
30/11:00pm 13.2 9.9 6.5 64 3.2 NE 13 17 7 9 - - 0.0
30/10:30pm 13.0 10.2 6.8 66 3.0 NE 11 13 6 7 - - 0.0
30/10:00pm 12.8 10.4 7.0 68 2.8 NE 9 13 5 7 - - 0.0
30/09:30pm 12.5 10.6 7.6 72 2.4 ENE 7 9 4 5 - - 0.0
30/09:00pm 12.7 11.0 8.2 74 2.2 E 7 7 4 4 - - 0.0
30/08:30pm 13.4 11.7 8.5 72 2.5 E 7 9 4 5 - - 0.0
30/08:00pm 12.6 10.7 9.1 79 1.8 E 9 11 5 6 - - 0.0
30/07:30pm 13.1 11.7 9.5 79 1.8 E 7 7 4 4 - - 0.0
30/07:00pm 13.8 12.6 9.5 75 2.2 E 6 7 3 4 - - 0.0
30/06:30pm 15.8 15.1 9.9 68 3.1 E 4 4 2 2 - - 0.0
30/06:00pm 18.4 17.7 10.0 58 4.5 E 4 4 2 2 - - 0.0
30/05:30pm 20.4 20.3 9.3 49 5.9 CALM 0 0 0 0 - - 0.0
30/05:00pm 21.2 20.6 8.8 45 6.6 NW 2 6 1 3 - - 0.0

Other Formats:

Comma delimited format used in spreadsheet applications
http://www.bom.gov.au/fwo/IDV60801/IDV60801.95832.axf

JavaScript Object Notation format (JSON) in row-major order
http://www.bom.gov.au/fwo/IDV60801/IDV60801.95832.json